createdAt,value
2023-04-10T00:01:08.969Z,100.00
2023-04-10T00:03:55.836Z,100.00
2023-04-10T00:06:28.168Z,100.00
2023-04-10T00:08:54.889Z,100.00
2023-04-10T00:11:21.441Z,100.00
2023-04-10T00:13:55.730Z,100.00
2023-04-10T00:16:27.515Z,100.00
2023-04-10T00:18:55.830Z,100.00
2023-04-10T00:21:22.651Z,100.00
2023-04-10T00:24:00.466Z,100.00
2023-04-10T00:26:27.683Z,100.00
2023-04-10T00:28:55.081Z,100.00
2023-04-10T00:31:24.652Z,100.00
2023-04-10T00:33:57.984Z,100.00
2023-04-10T00:36:28.057Z,100.00
2023-04-10T00:38:54.817Z,100.00
2023-04-10T00:41:28.902Z,100.00
2023-04-10T00:43:56.526Z,100.00
2023-04-10T00:46:23.845Z,100.00
2023-04-10T00:48:54.715Z,100.00
2023-04-10T00:51:22.510Z,100.00
2023-04-10T00:53:51.684Z,100.00
2023-04-10T00:56:20.322Z,100.00
2023-04-10T00:58:48.057Z,100.00
2023-04-10T01:01:14.724Z,100.00
2023-04-10T01:03:43.355Z,100.00
2023-04-10T01:06:26.882Z,100.00
2023-04-10T01:09:22.788Z,100.00
2023-04-10T01:12:09.099Z,100.00
2023-04-10T01:15:04.474Z,100.00
2023-04-10T01:17:55.553Z,100.00
2023-04-10T01:20:23.844Z,100.00
2023-04-10T01:23:03.612Z,100.00
2023-04-10T01:25:44.745Z,100.00
2023-04-10T01:28:41.014Z,100.00
2023-04-10T01:31:09.904Z,100.00
2023-04-10T01:33:41.413Z,100.00
2023-04-10T01:36:08.678Z,100.00
2023-04-10T01:38:36.135Z,100.00
2023-04-10T01:41:02.857Z,100.00
2023-04-10T01:43:31.667Z,100.00
2023-04-10T01:45:59.092Z,100.00
2023-04-10T01:48:25.860Z,100.00
2023-04-10T01:50:52.731Z,100.00
2023-04-10T01:53:19.428Z,100.00
2023-04-10T01:55:47.153Z,100.00
2023-04-10T01:58:14.930Z,100.00
2023-04-10T02:00:42.428Z,100.00
2023-04-10T02:03:10.886Z,100.00
2023-04-10T02:06:02.577Z,100.00
2023-04-10T02:09:03.314Z,100.00
2023-04-10T02:12:06.573Z,100.00
2023-04-10T02:14:36.534Z,100.00
2023-04-10T02:17:04.771Z,100.00
2023-04-10T02:19:31.612Z,100.00
2023-04-10T02:22:04.413Z,100.00
2023-04-10T02:24:34.663Z,100.00
2023-04-10T02:27:01.381Z,100.00
2023-04-10T02:29:28.931Z,100.00
2023-04-10T02:31:55.880Z,100.00
2023-04-10T02:34:22.481Z,100.00
2023-04-10T02:36:49.489Z,100.00
2023-04-10T02:39:16.170Z,100.00
2023-04-10T02:41:48.072Z,100.00
2023-04-10T02:44:15.176Z,100.00
2023-04-10T02:46:42.322Z,100.00
2023-04-10T02:49:09.932Z,100.00
2023-04-10T02:51:36.873Z,100.00
2023-04-10T02:54:03.988Z,100.00
2023-04-10T02:56:34.268Z,100.00
2023-04-10T02:59:00.956Z,100.00
2023-04-10T03:01:29.425Z,100.00
2023-04-10T03:03:57.651Z,100.00
2023-04-10T03:06:30.723Z,100.00
2023-04-10T03:08:57.462Z,100.00
2023-04-10T03:11:24.022Z,100.00
2023-04-10T03:13:53.381Z,100.00
2023-04-10T03:16:21.097Z,100.00
2023-04-10T03:18:48.150Z,100.00
2023-04-10T03:21:20.827Z,100.00
2023-04-10T03:23:49.098Z,100.00
2023-04-10T03:26:16.011Z,100.00
2023-04-10T03:28:42.682Z,100.00
2023-04-10T03:31:11.713Z,100.00
2023-04-10T03:33:39.656Z,100.00
2023-04-10T03:36:07.207Z,100.00
2023-04-10T03:38:34.236Z,100.00
2023-04-10T03:41:01.126Z,100.00
2023-04-10T03:43:31.033Z,100.00
2023-04-10T03:45:57.978Z,100.00
2023-04-10T03:48:30.016Z,100.00
2023-04-10T03:50:57.697Z,100.00
2023-04-10T03:53:25.263Z,100.00
2023-04-10T03:55:52.829Z,100.00
2023-04-10T03:58:22.590Z,100.00
2023-04-10T04:00:50.984Z,100.00
2023-04-10T04:03:24.311Z,100.00
2023-04-10T04:05:58.430Z,100.00
2023-04-10T04:08:48.872Z,100.00
2023-04-10T04:11:15.584Z,100.00
2023-04-10T04:14:13.324Z,100.00
2023-04-10T04:16:56.897Z,100.00
2023-04-10T04:19:55.062Z,100.00
2023-04-10T04:22:46.707Z,100.00
2023-04-10T04:25:21.792Z,100.00
2023-04-10T04:28:15.402Z,100.00
2023-04-10T04:31:02.062Z,100.00
2023-04-10T04:33:52.918Z,100.00
2023-04-10T04:36:50.176Z,100.00
2023-04-10T04:39:35.736Z,100.00
2023-04-10T04:42:22.765Z,100.00
2023-04-10T04:45:09.986Z,100.00
2023-04-10T04:48:10.231Z,100.00
2023-04-10T04:50:59.863Z,100.00
2023-04-10T04:53:45.396Z,100.00
2023-04-10T04:56:31.668Z,100.00
2023-04-10T04:59:18.677Z,100.00
2023-04-10T05:02:06.161Z,100.00
2023-04-10T05:04:48.167Z,100.00
2023-04-10T05:07:38.246Z,100.00
2023-04-10T05:10:25.982Z,100.00
2023-04-10T05:13:16.935Z,100.00
2023-04-10T05:15:58.621Z,100.00
2023-04-10T05:18:40.991Z,100.00
2023-04-10T05:21:20.681Z,100.00
2023-04-10T05:24:07.913Z,100.00
2023-04-10T05:26:49.726Z,100.00
2023-04-10T05:29:35.340Z,100.00
2023-04-10T05:32:39.207Z,100.00
2023-04-10T05:35:38.122Z,100.00
2023-04-10T05:38:30.766Z,100.00
2023-04-10T05:41:13.096Z,100.00
2023-04-10T05:43:56.233Z,100.00
2023-04-10T05:46:55.169Z,100.00
2023-04-10T05:49:22.381Z,100.00
2023-04-10T05:52:02.166Z,100.00
2023-04-10T05:54:46.524Z,100.00
2023-04-10T05:57:32.014Z,100.00
2023-04-10T06:00:38.038Z,100.00
2023-04-10T06:03:23.334Z,100.00
2023-04-10T06:05:55.960Z,100.00
2023-04-10T06:08:24.968Z,100.00
2023-04-10T06:10:52.884Z,100.00
2023-04-10T06:13:20.031Z,100.00
2023-04-10T06:15:48.506Z,100.00
2023-04-10T06:18:16.466Z,100.00
2023-04-10T06:20:43.902Z,100.00
2023-04-10T06:23:13.417Z,100.00
2023-04-10T06:25:41.265Z,100.00
2023-04-10T06:28:08.092Z,100.00
2023-04-10T06:30:39.027Z,100.00
2023-04-10T06:33:07.835Z,100.00
2023-04-10T06:35:36.024Z,100.00
2023-04-10T06:38:03.630Z,100.00
2023-04-10T06:40:33.469Z,100.00
2023-04-10T06:43:00.781Z,100.00
2023-04-10T06:45:34.216Z,100.00
2023-04-10T06:48:01.473Z,100.00
2023-04-10T06:50:28.654Z,100.00
2023-04-10T06:52:59.206Z,100.00
2023-04-10T06:55:26.515Z,100.00
2023-04-10T06:58:13.317Z,100.00
2023-04-10T07:00:40.983Z,100.00
2023-04-10T07:03:09.116Z,100.00
2023-04-10T07:05:36.203Z,100.00
2023-04-10T07:08:03.296Z,100.00
2023-04-10T07:10:31.616Z,100.00
2023-04-10T07:13:00.127Z,100.00
2023-04-10T07:15:40.954Z,100.00
2023-04-10T07:18:09.137Z,100.00
2023-04-10T07:20:36.481Z,100.00
2023-04-10T07:23:11.640Z,100.00
2023-04-10T07:25:40.554Z,100.00
2023-04-10T07:28:07.246Z,100.00
2023-04-10T07:30:42.430Z,100.00
2023-04-10T07:33:10.130Z,100.00
2023-04-10T07:35:37.567Z,100.00
2023-04-10T07:38:05.927Z,100.00
2023-04-10T07:40:33.324Z,100.00
2023-04-10T07:43:00.863Z,100.00
2023-04-10T07:45:28.039Z,100.00
2023-04-10T07:47:55.547Z,100.00
2023-04-10T07:50:25.555Z,100.00
2023-04-10T07:52:52.662Z,100.00
2023-04-10T07:55:19.922Z,100.00
2023-04-10T07:57:46.842Z,100.00
2023-04-10T08:00:14.569Z,100.00
2023-04-10T08:02:43.499Z,100.00
2023-04-10T08:05:10.729Z,100.00
2023-04-10T08:07:37.917Z,100.00
2023-04-10T08:10:05.271Z,100.00
2023-04-10T08:12:35.600Z,100.00
2023-04-10T08:15:05.130Z,100.00
2023-04-10T08:17:33.485Z,100.00
2023-04-10T08:20:01.696Z,100.00
2023-04-10T08:22:29.278Z,100.00
2023-04-10T08:25:00.579Z,100.00
2023-04-10T08:27:48.368Z,100.00
2023-04-10T08:30:16.227Z,100.00
2023-04-10T08:32:46.643Z,100.00
2023-04-10T08:35:13.843Z,100.00
2023-04-10T08:37:49.739Z,100.00
2023-04-10T08:40:21.623Z,100.00
2023-04-10T08:42:53.699Z,100.00
2023-04-10T08:45:22.057Z,100.00
2023-04-10T08:47:52.072Z,100.00
2023-04-10T08:50:19.489Z,100.00
2023-04-10T08:52:46.855Z,100.00
2023-04-10T08:55:17.197Z,100.00
2023-04-10T08:57:54.136Z,100.00
2023-04-10T09:00:25.420Z,100.00
2023-04-10T09:02:57.656Z,100.00
2023-04-10T09:05:26.464Z,100.00
2023-04-10T09:08:01.162Z,100.00
2023-04-10T09:10:28.255Z,100.00
2023-04-10T09:12:55.766Z,100.00
2023-04-10T09:15:22.835Z,100.00
2023-04-10T09:18:01.179Z,100.00
2023-04-10T09:20:30.791Z,100.00
2023-04-10T09:22:58.266Z,100.00
2023-04-10T09:25:41.104Z,100.00
2023-04-10T09:28:09.516Z,100.00
2023-04-10T09:30:40.590Z,100.00
2023-04-10T09:33:30.021Z,100.00
2023-04-10T09:35:57.554Z,100.00
2023-04-10T09:38:26.913Z,100.00
2023-04-10T09:40:55.536Z,100.00
2023-04-10T09:43:25.691Z,99.27
2023-04-10T09:45:57.108Z,96.76
2023-04-10T09:48:26.371Z,95.52
2023-04-10T09:50:53.723Z,95.56
2023-04-10T09:53:23.027Z,97.51
2023-04-10T09:55:51.591Z,99.22
2023-04-10T09:58:18.643Z,100.00
2023-04-10T10:00:49.390Z,99.82
2023-04-10T10:03:18.891Z,99.64
2023-04-10T10:05:50.181Z,99.40
2023-04-10T10:08:25.651Z,100.00
2023-04-10T10:10:54.118Z,100.00
2023-04-10T10:13:35.524Z,100.00
2023-04-10T10:16:26.819Z,100.00
2023-04-10T10:19:10.806Z,100.00
2023-04-10T10:21:38.116Z,100.00
2023-04-10T10:24:09.951Z,100.00
2023-04-10T10:26:38.719Z,100.00
2023-04-10T10:29:38.748Z,98.12
2023-04-10T10:32:13.753Z,94.73
2023-04-10T10:34:41.576Z,92.18
2023-04-10T10:37:08.616Z,92.04
2023-04-10T10:39:43.487Z,87.67
2023-04-10T10:42:45.647Z,86.66
2023-04-10T10:45:16.217Z,82.22
2023-04-10T10:47:45.615Z,81.45
2023-04-10T10:50:14.185Z,82.69
2023-04-10T10:53:00.131Z,81.17
2023-04-10T10:55:27.583Z,78.54
2023-04-10T10:57:55.590Z,76.88
2023-04-10T11:00:27.096Z,76.38
2023-04-10T11:03:14.053Z,74.19
2023-04-10T11:05:52.097Z,71.80
2023-04-10T11:08:35.714Z,71.20
2023-04-10T11:11:12.302Z,68.90
2023-04-10T11:13:41.471Z,70.02
2023-04-10T11:16:11.426Z,71.08
2023-04-10T11:18:56.197Z,68.88
2023-04-10T11:21:39.734Z,67.09
2023-04-10T11:24:53.045Z,68.28
2023-04-10T11:28:12.538Z,68.20
2023-04-10T11:31:11.668Z,64.84
2023-04-10T11:33:40.563Z,63.43
2023-04-10T11:36:07.520Z,62.71
2023-04-10T11:38:35.749Z,63.28
2023-04-10T11:41:04.765Z,63.91
2023-04-10T11:43:34.513Z,64.85
2023-04-10T11:46:06.894Z,63.79
2023-04-10T11:48:34.267Z,64.46
2023-04-10T11:51:11.549Z,63.87
2023-04-10T11:53:41.870Z,64.99
2023-04-10T11:56:16.888Z,65.09
2023-04-10T11:58:44.206Z,65.67
2023-04-10T12:01:13.875Z,67.45
2023-04-10T12:03:42.202Z,70.27
2023-04-10T12:10:47.244Z,78.88
2023-04-10T12:13:32.470Z,82.07
2023-04-10T12:16:03.622Z,85.33
2023-04-10T12:18:30.998Z,86.95
2023-04-10T12:20:58.931Z,88.05
2023-04-10T12:23:29.308Z,89.33
2023-04-10T12:26:27.089Z,89.99
2023-04-10T12:28:55.307Z,91.34
2023-04-10T12:31:33.337Z,91.13
2023-04-10T12:43:00.573Z,91.51
2023-04-10T12:45:42.221Z,92.79
2023-04-10T12:48:09.179Z,92.81
2023-04-10T12:50:47.095Z,92.76
2023-04-10T12:53:15.114Z,91.91
2023-04-10T12:55:42.499Z,91.05
2023-04-10T12:58:19.494Z,91.45
2023-04-10T13:00:46.979Z,90.58
2023-04-10T13:03:14.155Z,91.61
2023-04-10T13:10:31.833Z,98.53
2023-04-10T13:13:01.842Z,99.14
2023-04-10T13:15:29.441Z,97.39
2023-04-10T13:17:56.689Z,96.72
2023-04-10T13:20:24.560Z,96.84
2023-04-10T13:22:51.647Z,98.45
2023-04-10T13:25:18.377Z,100.00
2023-04-10T13:27:46.203Z,100.00
2023-04-10T13:30:12.874Z,100.00
2023-04-10T13:32:39.836Z,99.65
2023-04-10T13:35:08.475Z,99.99
2023-04-10T13:37:36.062Z,100.00
2023-04-10T13:40:04.488Z,99.85
2023-04-10T13:42:31.958Z,99.99
2023-04-10T13:44:58.596Z,100.00
2023-04-10T13:47:25.609Z,100.00
2023-04-10T13:49:52.763Z,100.00
2023-04-10T13:52:21.011Z,100.00
2023-04-10T13:54:48.035Z,100.00
2023-04-10T13:57:14.718Z,100.00
2023-04-10T13:59:44.164Z,100.00
2023-04-10T14:02:11.756Z,100.00
2023-04-10T14:04:38.779Z,100.00
2023-04-10T14:07:05.387Z,100.00
2023-04-10T14:09:32.879Z,100.00
2023-04-10T14:12:00.942Z,100.00
2023-04-10T14:14:28.841Z,100.00
2023-04-10T14:16:56.735Z,100.00
2023-04-10T14:19:23.560Z,100.00
2023-04-10T14:21:50.475Z,100.00
2023-04-10T14:24:17.508Z,100.00
2023-04-10T14:26:44.817Z,100.00
2023-04-10T14:29:13.483Z,100.00
2023-04-10T14:31:56.579Z,98.13
2023-04-10T14:34:24.549Z,94.96
2023-04-10T14:36:55.114Z,92.12
2023-04-10T14:39:23.877Z,90.21
2023-04-10T14:41:50.972Z,89.21
2023-04-10T14:44:17.671Z,88.04
2023-04-10T14:46:45.255Z,88.01
2023-04-10T14:49:13.279Z,88.18
2023-04-10T14:51:44.932Z,88.62
2023-04-10T14:54:11.616Z,88.83
2023-04-10T14:56:38.328Z,89.03
2023-04-10T14:59:06.313Z,88.65
2023-04-10T15:01:33.552Z,87.98
2023-04-10T15:04:00.682Z,86.92
2023-04-10T15:06:28.923Z,85.42
2023-04-10T15:08:56.261Z,84.92
2023-04-10T15:11:23.159Z,84.13
2023-04-10T15:13:52.582Z,82.92
2023-04-10T15:16:21.238Z,81.95
2023-04-10T15:18:49.368Z,81.06
2023-04-10T15:21:16.514Z,80.59
2023-04-10T15:23:43.260Z,80.51
2023-04-10T15:26:16.553Z,80.23
2023-04-10T15:28:43.737Z,79.82
2023-04-10T15:31:10.541Z,79.94
2023-04-10T15:33:51.114Z,80.32
2023-04-10T15:36:17.911Z,80.35
2023-04-10T15:38:45.061Z,80.52
2023-04-10T15:41:12.409Z,80.31
2023-04-10T15:43:39.234Z,80.03
2023-04-10T15:50:39.910Z,79.28
2023-04-10T15:53:06.656Z,79.57
2023-04-10T15:55:33.453Z,79.99
2023-04-10T15:58:05.516Z,80.11
2023-04-10T16:00:32.749Z,80.46
2023-04-10T16:02:59.665Z,81.08
2023-04-10T16:05:26.632Z,81.98
2023-04-10T16:07:53.664Z,82.29
2023-04-10T16:10:20.731Z,82.22
2023-04-10T16:12:47.866Z,82.22
2023-04-10T16:15:16.212Z,82.65
2023-04-10T16:17:43.463Z,82.99
2023-04-10T16:20:13.742Z,83.14
2023-04-10T16:22:40.872Z,83.87
2023-04-10T16:25:08.383Z,84.54
2023-04-10T16:27:36.551Z,84.71
2023-04-10T16:30:06.011Z,84.72
2023-04-10T16:32:35.549Z,84.94
2023-04-10T16:35:05.888Z,85.02
2023-04-10T16:37:32.878Z,84.93
2023-04-10T16:40:05.048Z,84.89
2023-04-10T16:42:32.544Z,85.65
2023-04-10T16:45:01.451Z,85.90
2023-04-10T16:47:29.844Z,86.57
2023-04-10T16:49:56.750Z,87.15
2023-04-10T16:52:32.870Z,87.45
2023-04-10T16:54:59.639Z,87.68
2023-04-10T16:57:26.831Z,87.87
2023-04-10T17:00:00.899Z,88.13
2023-04-10T17:02:31.880Z,88.67
2023-04-10T17:05:00.071Z,89.27
2023-04-10T17:07:31.616Z,89.71
2023-04-10T17:10:01.588Z,89.78
2023-04-10T17:12:31.130Z,90.30
2023-04-10T17:15:04.163Z,90.76
2023-04-10T17:17:34.884Z,91.24
2023-04-10T17:20:03.071Z,91.91
2023-04-10T17:22:33.573Z,92.44
2023-04-10T17:25:03.906Z,92.98
2023-04-10T17:27:33.449Z,93.86
2023-04-10T17:30:12.681Z,94.41
2023-04-10T17:32:45.422Z,95.09
2023-04-10T17:35:15.649Z,95.60
2023-04-10T17:37:46.569Z,96.09
2023-04-10T17:40:16.707Z,96.81
2023-04-10T17:42:45.646Z,97.34
2023-04-10T17:45:16.361Z,97.85
2023-04-10T17:47:46.679Z,98.38
2023-04-10T17:50:15.347Z,98.88
2023-04-10T17:52:45.391Z,99.42
2023-04-10T17:55:20.847Z,99.98
2023-04-10T17:57:55.616Z,100.00
2023-04-10T18:00:26.651Z,100.00
2023-04-10T18:03:00.290Z,100.00
2023-04-10T18:13:27.639Z,100.00
2023-04-10T18:15:56.446Z,100.00
2023-04-10T18:18:23.697Z,100.00
2023-04-10T18:20:51.103Z,100.00
2023-04-10T18:23:24.464Z,100.00
2023-04-10T18:25:54.334Z,100.00
2023-04-10T18:28:21.848Z,100.00
2023-04-10T18:30:50.317Z,100.00
2023-04-10T18:33:21.894Z,100.00
2023-04-10T18:35:53.445Z,100.00
2023-04-10T18:38:20.792Z,100.00
2023-04-10T18:40:56.400Z,100.00
2023-04-10T18:43:29.344Z,100.00
2023-04-10T18:46:02.075Z,100.00
2023-04-10T18:48:29.056Z,100.00
2023-04-10T18:50:55.719Z,100.00
2023-04-10T18:53:22.388Z,100.00
2023-04-10T18:55:52.811Z,100.00
2023-04-10T18:58:20.263Z,100.00
2023-04-10T19:00:48.437Z,100.00
2023-04-10T19:03:16.561Z,100.00
2023-04-10T19:05:46.078Z,100.00
2023-04-10T19:08:15.193Z,100.00
2023-04-10T19:10:42.211Z,100.00
2023-04-10T19:13:11.389Z,100.00
2023-04-10T19:15:42.695Z,100.00
2023-04-10T19:18:10.174Z,100.00
2023-04-10T19:20:50.461Z,100.00
2023-04-10T19:23:21.871Z,100.00
2023-04-10T19:25:53.160Z,100.00
2023-04-10T19:28:19.902Z,100.00
2023-04-10T19:31:07.478Z,100.00
2023-04-10T19:33:35.056Z,100.00
2023-04-10T19:36:02.056Z,100.00
2023-04-10T19:38:30.072Z,100.00
2023-04-10T19:40:57.904Z,100.00
2023-04-10T19:43:24.971Z,100.00
2023-04-10T19:45:52.782Z,100.00
2023-04-10T19:48:20.534Z,100.00
2023-04-10T19:50:47.158Z,100.00
2023-04-10T19:53:23.031Z,100.00
2023-04-10T19:55:50.288Z,100.00
2023-04-10T19:58:30.459Z,100.00
2023-04-10T20:01:04.752Z,100.00
2023-04-10T20:03:32.900Z,100.00
2023-04-10T20:06:01.718Z,100.00
2023-04-10T20:08:29.694Z,99.58
2023-04-10T20:10:58.148Z,96.99
2023-04-10T20:13:25.311Z,95.77
2023-04-10T20:15:53.746Z,95.17
2023-04-10T20:18:20.769Z,94.99
2023-04-10T20:20:47.512Z,94.93
2023-04-10T20:23:14.383Z,95.03
2023-04-10T20:25:41.017Z,95.19
2023-04-10T20:28:08.296Z,95.36
2023-04-10T20:30:43.559Z,95.81
2023-04-10T20:33:10.525Z,96.06
2023-04-10T20:35:37.414Z,96.17
2023-04-10T20:38:04.300Z,95.60
2023-04-10T20:40:31.635Z,94.27
2023-04-10T20:43:02.415Z,93.69
2023-04-10T20:45:30.267Z,93.17
2023-04-10T20:47:57.016Z,92.59
2023-04-10T20:50:23.841Z,91.10
2023-04-10T20:52:50.560Z,89.74
2023-04-10T20:55:17.240Z,88.94
2023-04-10T20:57:44.224Z,88.73
2023-04-10T21:00:11.613Z,89.38
2023-04-10T21:02:39.426Z,89.92
2023-04-10T21:05:06.769Z,89.79
2023-04-10T21:07:35.711Z,89.82
2023-04-10T21:10:04.287Z,89.70
2023-04-10T21:12:31.430Z,88.39
2023-04-10T21:15:01.007Z,87.34
2023-04-10T21:17:30.635Z,87.04
2023-04-10T21:19:58.263Z,86.86
2023-04-10T21:22:28.071Z,86.51
2023-04-10T21:24:55.930Z,86.45
2023-04-10T21:27:27.774Z,86.77
2023-04-10T21:29:54.436Z,86.97
2023-04-10T21:32:21.157Z,87.31
2023-04-10T21:34:47.900Z,87.16
2023-04-10T21:37:14.557Z,87.15
2023-04-10T21:39:41.451Z,87.30
2023-04-10T21:42:08.176Z,87.72
2023-04-10T21:44:35.103Z,88.20
2023-04-10T21:47:01.763Z,88.61
2023-04-10T21:49:29.030Z,89.17
2023-04-10T21:52:03.824Z,89.73
2023-04-10T21:54:30.604Z,90.11
2023-04-10T21:56:58.053Z,90.46
2023-04-10T21:59:26.245Z,90.55
2023-04-10T22:01:53.867Z,90.73
2023-04-10T22:04:20.700Z,90.90
2023-04-10T22:06:47.427Z,91.38
2023-04-10T22:09:14.262Z,91.80
2023-04-10T22:11:40.904Z,91.81
2023-04-10T22:14:17.176Z,92.29
2023-04-10T22:16:45.717Z,92.21
2023-04-10T22:19:12.432Z,92.31
2023-04-10T22:21:39.106Z,92.14
2023-04-10T22:24:06.056Z,91.91
2023-04-10T22:26:33.839Z,91.69
2023-04-10T22:29:02.983Z,91.73
2023-04-10T22:31:29.861Z,91.61
2023-04-10T22:33:56.789Z,91.62
2023-04-10T22:36:24.385Z,91.58
2023-04-10T22:38:51.141Z,91.76
2023-04-10T22:41:17.811Z,91.68
2023-04-10T22:43:44.498Z,91.69
2023-04-10T22:46:13.216Z,91.47
2023-04-10T22:48:40.862Z,91.15
2023-04-10T22:51:11.397Z,90.58
2023-04-10T22:53:40.359Z,90.21
2023-04-10T22:56:08.496Z,89.83
2023-04-10T22:58:38.555Z,89.74
2023-04-10T23:01:06.446Z,89.68
2023-04-10T23:03:33.337Z,89.84
2023-04-10T23:06:00.273Z,90.26
2023-04-10T23:08:27.097Z,90.55
2023-04-10T23:10:54.572Z,91.10
2023-04-10T23:13:23.977Z,91.64
2023-04-10T23:15:52.415Z,92.11
2023-04-10T23:18:19.160Z,92.38
2023-04-10T23:20:50.502Z,92.97
2023-04-10T23:23:17.890Z,93.16
2023-04-10T23:25:44.823Z,93.21
2023-04-10T23:28:13.286Z,93.39
2023-04-10T23:30:42.204Z,93.61
2023-04-10T23:33:09.170Z,94.01
2023-04-10T23:35:36.670Z,94.39
2023-04-10T23:38:03.866Z,94.68
2023-04-10T23:40:30.722Z,95.28
2023-04-10T23:42:57.864Z,95.80
2023-04-10T23:45:24.645Z,96.16
2023-04-10T23:47:54.535Z,96.65
2023-04-10T23:50:22.084Z,97.18
2023-04-10T23:52:51.979Z,97.44
2023-04-10T23:55:21.061Z,97.94
2023-04-10T23:57:47.901Z,98.38
